createdAt,value
2023-03-26T00:00:26.717Z,152156.31
2023-03-26T00:02:59.021Z,152148.56
2023-03-26T00:05:32.389Z,152171.81
2023-03-26T00:08:03.097Z,152131.78
2023-03-26T00:10:33.490Z,152117.56
2023-03-26T00:13:03.714Z,152062.06
2023-03-26T00:15:35.228Z,152024.59
2023-03-26T00:18:05.999Z,152005.22
2023-03-26T00:20:38.861Z,151989.75
2023-03-26T00:23:09.181Z,151963.94
2023-03-26T00:25:43.618Z,151931.66
2023-03-26T00:28:13.856Z,151903.25
2023-03-26T00:30:44.966Z,151881.34
2023-03-26T00:33:17.649Z,151856.81
2023-03-26T00:35:55.449Z,151833.53
2023-03-26T00:38:26.944Z,151812.88
2023-03-26T00:40:59.506Z,151812.88
2023-03-26T00:43:33.056Z,151833.53
2023-03-26T00:46:03.433Z,151815.50
2023-03-26T00:48:44.631Z,151793.53
2023-03-26T00:51:20.862Z,151775.44
2023-03-26T00:53:52.701Z,151763.84
2023-03-26T00:56:23.108Z,151757.41
2023-03-26T00:58:53.713Z,151743.22
2023-03-26T01:01:29.138Z,151736.78
2023-03-26T01:04:08.076Z,151720.00
2023-03-26T01:06:45.449Z,151709.69
2023-03-26T01:09:21.325Z,151701.97
2023-03-26T01:11:58.785Z,151705.81
2023-03-26T01:14:31.107Z,151709.69
2023-03-26T01:17:06.225Z,151690.34
2023-03-26T01:19:48.826Z,151674.84
2023-03-26T01:22:25.015Z,151673.59
2023-03-26T01:24:57.926Z,151677.47
2023-03-26T01:27:42.446Z,151655.50
2023-03-26T01:30:20.085Z,151649.09
2023-03-26T01:32:58.109Z,151634.88
2023-03-26T01:35:39.277Z,151621.97
2023-03-26T01:38:25.830Z,151619.44
2023-03-26T01:41:07.673Z,151609.13
2023-03-26T01:43:47.119Z,151600.06
2023-03-26T01:46:19.793Z,151606.50
2023-03-26T01:48:51.194Z,151588.44
2023-03-26T01:51:33.678Z,151597.47
2023-03-26T01:54:14.784Z,151634.88
2023-03-26T01:57:06.002Z,151616.81
2023-03-26T02:00:00.706Z,151631.00
2023-03-26T02:02:43.088Z,151609.13
2023-03-26T02:05:23.215Z,151591.03
2023-03-26T02:08:05.669Z,151587.16
2023-03-26T02:10:39.805Z,151572.97
2023-03-26T02:13:17.478Z,151549.81
2023-03-26T02:15:58.768Z,151539.50
2023-03-26T02:18:36.975Z,151536.91
2023-03-26T02:21:10.254Z,151522.72
2023-03-26T02:23:47.267Z,151529.13
2023-03-26T02:26:20.155Z,151558.78
2023-03-26T02:29:02.406Z,151553.63
2023-03-26T02:31:33.080Z,151565.28
2023-03-26T02:34:03.615Z,151566.53
2023-03-26T02:36:37.212Z,151549.81
2023-03-26T02:39:08.424Z,151535.63
2023-03-26T02:41:41.860Z,151504.66
2023-03-26T02:44:17.066Z,151498.22
2023-03-26T02:47:02.287Z,151490.50
2023-03-26T02:49:46.273Z,151472.44
2023-03-26T02:52:23.129Z,151449.25
2023-03-26T02:54:54.801Z,151426.06
2023-03-26T02:57:27.743Z,151420.88
2023-03-26T03:00:36.728Z,151409.28
2023-03-26T03:03:28.184Z,151384.81
2023-03-26T03:06:27.164Z,151383.53
2023-03-26T03:09:02.947Z,151384.81
2023-03-26T03:11:53.744Z,151384.81
2023-03-26T03:14:24.350Z,151389.97
2023-03-26T03:16:58.035Z,151397.72
2023-03-26T03:19:28.498Z,151384.81
2023-03-26T03:21:58.773Z,151373.22
2023-03-26T03:24:28.989Z,151360.31
2023-03-26T03:27:00.109Z,151351.31
2023-03-26T03:29:53.779Z,151348.75
2023-03-26T03:32:58.557Z,151335.84
2023-03-26T03:35:29.846Z,151324.28
2023-03-26T03:38:02.711Z,151311.38
2023-03-26T03:40:39.396Z,151302.34
2023-03-26T03:43:10.078Z,151294.66
2023-03-26T03:45:48.593Z,151285.63
2023-03-26T03:48:48.484Z,151286.88
2023-03-26T03:51:21.286Z,151266.28
2023-03-26T03:54:03.559Z,151259.88
2023-03-26T03:56:54.287Z,151262.41
2023-03-26T03:59:48.005Z,151266.28
2023-03-26T04:02:26.740Z,151259.88
2023-03-26T04:05:05.125Z,151258.53
2023-03-26T04:07:36.209Z,151245.69
2023-03-26T04:10:26.390Z,151240.53
2023-03-26T04:13:15.554Z,151235.38
2023-03-26T04:16:12.507Z,151239.28
2023-03-26T04:18:42.952Z,151232.78
2023-03-26T04:21:20.281Z,151235.38
2023-03-26T04:23:50.866Z,151237.94
2023-03-26T04:26:44.116Z,151249.56
2023-03-26T04:29:24.645Z,151293.38
2023-03-26T04:31:58.872Z,151316.53
2023-03-26T04:34:31.307Z,151328.16
2023-03-26T04:37:34.645Z,151344.88
2023-03-26T04:40:30.804Z,151342.31
2023-03-26T04:43:06.627Z,151335.84
2023-03-26T04:45:56.121Z,151333.28
2023-03-26T04:48:30.608Z,151310.09
2023-03-26T04:51:01.891Z,151292.03
2023-03-26T04:53:35.185Z,151270.16
2023-03-26T04:56:37.770Z,151270.16
2023-03-26T04:59:37.275Z,151297.19
2023-03-26T05:02:11.573Z,151289.50
2023-03-26T05:04:50.901Z,151299.78
2023-03-26T05:07:24.338Z,151313.97
2023-03-26T05:10:03.820Z,151328.16
2023-03-26T05:12:50.234Z,151342.31
2023-03-26T05:15:33.311Z,151371.94
2023-03-26T05:18:26.307Z,151397.72
2023-03-26T05:20:57.714Z,151441.53
2023-03-26T05:23:28.817Z,151463.41
2023-03-26T05:26:19.290Z,151493.06
2023-03-26T05:28:49.617Z,151524.00
2023-03-26T05:31:45.841Z,151554.97
2023-03-26T05:34:16.116Z,151565.28
2023-03-26T05:36:46.293Z,151553.63
2023-03-26T05:39:35.820Z,151539.50
2023-03-26T05:42:29.293Z,151542.06
2023-03-26T05:45:16.767Z,151533.03
2023-03-26T05:47:48.110Z,151539.50
2023-03-26T05:50:18.735Z,151566.53
2023-03-26T05:52:49.202Z,151584.63
2023-03-26T05:55:37.867Z,151593.66
2023-03-26T05:58:29.560Z,151627.13
2023-03-26T06:01:19.985Z,151664.53
2023-03-26T06:04:16.257Z,151709.69
2023-03-26T06:07:10.245Z,151754.81
2023-03-26T06:09:41.854Z,151805.13
2023-03-26T06:12:13.988Z,151885.22
2023-03-26T06:14:47.473Z,151891.66
2023-03-26T06:17:23.500Z,151917.44
2023-03-26T06:20:15.014Z,151936.81
2023-03-26T06:22:48.975Z,151923.94
2023-03-26T06:25:24.237Z,151944.56
2023-03-26T06:28:03.428Z,151985.88
2023-03-26T06:30:55.604Z,152063.34
2023-03-26T06:33:35.094Z,152086.59
2023-03-26T06:36:05.670Z,152140.84
2023-03-26T06:38:36.060Z,152160.16
2023-03-26T06:41:09.981Z,152182.16
2023-03-26T06:43:53.194Z,152233.78
2023-03-26T06:46:44.732Z,152272.56
2023-03-26T06:49:34.638Z,152319.09
2023-03-26T06:52:33.751Z,152374.66
2023-03-26T06:55:26.206Z,152435.38
2023-03-26T06:58:09.879Z,152363.03
2023-03-26T07:00:59.793Z,152403.09
2023-03-26T07:03:51.971Z,152439.28
2023-03-26T07:06:40.730Z,152491.00
2023-03-26T07:09:30.601Z,152546.63
2023-03-26T07:12:03.293Z,152594.44
2023-03-26T07:14:53.845Z,152647.47
2023-03-26T07:17:30.247Z,152668.16
2023-03-26T07:20:11.886Z,152723.81
2023-03-26T07:22:43.304Z,152739.34
2023-03-26T07:25:20.040Z,152789.78
2023-03-26T07:28:10.326Z,152853.22
2023-03-26T07:31:27.840Z,152873.91
2023-03-26T07:34:44.939Z,152960.66
2023-03-26T07:37:48.222Z,153011.19
2023-03-26T07:40:55.286Z,153043.53
2023-03-26T07:43:57.623Z,153075.91
2023-03-26T07:46:42.926Z,153106.97
2023-03-26T07:49:37.836Z,153200.25
2023-03-26T07:52:17.516Z,153223.59
2023-03-26T07:55:17.024Z,153284.47
2023-03-26T07:58:19.012Z,153259.84
2023-03-26T08:01:13.091Z,153331.09
2023-03-26T08:03:56.454Z,153362.28
2023-03-26T08:07:08.411Z,153375.19
2023-03-26T08:10:13.246Z,153371.31
2023-03-26T08:13:10.523Z,153437.44
2023-03-26T08:15:50.156Z,153481.50
2023-03-26T08:18:30.715Z,153593.00
2023-03-26T08:21:06.508Z,153624.09
2023-03-26T08:23:50.955Z,153676.03
2023-03-26T08:26:30.886Z,153702.00
2023-03-26T08:29:13.435Z,153727.94
2023-03-26T08:31:47.243Z,153691.56
2023-03-26T08:34:17.493Z,153725.34
2023-03-26T08:36:47.905Z,153682.50
2023-03-26T08:39:18.486Z,153690.28
2023-03-26T08:42:16.673Z,153742.22
2023-03-26T08:45:15.752Z,153816.16
2023-03-26T08:48:15.887Z,153848.63
2023-03-26T08:51:14.038Z,153884.94
2023-03-26T08:54:13.851Z,153813.59
2023-03-26T08:56:57.331Z,153823.97
2023-03-26T09:00:11.453Z,153816.16
2023-03-26T09:03:14.105Z,153842.09
2023-03-26T09:06:24.817Z,153918.72
2023-03-26T09:09:37.348Z,153935.56
2023-03-26T09:12:42.094Z,153952.47
2023-03-26T09:15:48.722Z,153949.84
2023-03-26T09:18:58.114Z,153922.59
2023-03-26T09:22:00.049Z,154019.94
2023-03-26T09:25:06.085Z,153987.50
2023-03-26T09:27:42.971Z,154052.47
2023-03-26T09:30:54.048Z,154092.72
2023-03-26T09:33:52.420Z,154118.66
2023-03-26T09:36:30.772Z,154136.88
2023-03-26T09:39:12.916Z,154220.00
2023-03-26T09:41:46.716Z,154314.84
2023-03-26T09:44:35.215Z,154190.13
2023-03-26T09:47:39.398Z,154143.34
2023-03-26T09:50:38.324Z,154214.81
2023-03-26T09:53:25.567Z,154291.44
2023-03-26T09:56:19.258Z,154268.03
2023-03-26T09:59:08.427Z,154294.00
2023-03-26T10:01:47.278Z,154309.66
2023-03-26T10:04:44.726Z,154318.75
2023-03-26T10:07:31.308Z,154234.25
2023-03-26T10:10:07.946Z,154340.88
2023-03-26T10:12:46.277Z,154450.03
2023-03-26T10:15:35.192Z,154346.06
2023-03-26T10:18:28.259Z,154377.22
2023-03-26T10:21:05.261Z,154412.31
2023-03-26T10:23:51.241Z,154457.78
2023-03-26T10:27:09.253Z,154468.25
2023-03-26T10:30:08.158Z,154534.50
2023-03-26T10:32:46.104Z,154541.00
2023-03-26T10:35:28.795Z,154583.91
2023-03-26T10:38:11.792Z,154684.09
2023-03-26T10:40:50.877Z,154625.56
2023-03-26T10:44:01.154Z,154474.72
2023-03-26T10:46:58.438Z,154310.94
2023-03-26T10:49:44.269Z,154450.03
2023-03-26T10:52:18.978Z,154359.06
2023-03-26T10:54:57.992Z,154498.13
2023-03-26T10:57:38.898Z,154700.97
2023-03-26T11:00:18.513Z,154669.78
2023-03-26T11:03:15.228Z,154629.47
2023-03-26T11:05:52.673Z,154695.78
2023-03-26T11:08:31.829Z,154756.94
2023-03-26T11:11:11.794Z,154820.66
2023-03-26T11:13:54.101Z,154859.72
2023-03-26T11:16:33.624Z,154733.50
2023-03-26T11:19:14.793Z,154828.47
2023-03-26T11:21:53.545Z,154680.19
2023-03-26T11:25:00.848Z,154828.47
2023-03-26T11:27:41.462Z,154874.03
2023-03-26T11:30:22.535Z,154888.38
2023-03-26T11:32:57.021Z,154907.88
2023-03-26T11:35:40.969Z,154931.31
2023-03-26T11:38:20.359Z,154931.31
2023-03-26T11:40:54.367Z,154970.38
2023-03-26T11:43:43.403Z,155061.47
2023-03-26T11:46:17.611Z,154959.91
2023-03-26T11:48:51.352Z,154668.50
2023-03-26T11:51:30.094Z,154586.50
2023-03-26T11:54:00.580Z,154655.47
2023-03-26T11:56:35.268Z,154903.97
2023-03-26T11:59:09.393Z,154877.97
2023-03-26T12:01:51.425Z,154729.59
2023-03-26T12:04:24.062Z,154581.31
2023-03-26T12:06:59.959Z,154587.84
2023-03-26T12:09:30.266Z,154612.59
2023-03-26T12:12:07.308Z,154526.69
2023-03-26T12:14:38.701Z,154690.56
2023-03-26T12:17:11.813Z,154623.00
2023-03-26T12:19:44.377Z,154544.91
2023-03-26T12:22:36.446Z,154547.53
2023-03-26T12:25:18.721Z,154763.44
2023-03-26T12:27:53.076Z,154779.03
2023-03-26T12:30:25.879Z,154737.44
2023-03-26T12:33:01.177Z,154874.03
2023-03-26T12:35:34.531Z,155040.66
2023-03-26T12:38:29.252Z,154821.97
2023-03-26T12:43:19.841Z,154892.28
2023-03-26T12:44:49.992Z,155066.66
2023-03-26T12:47:59.128Z,155104.50
2023-03-26T12:50:17.442Z,155133.09
2023-03-26T12:53:08.144Z,155125.31
2023-03-26T12:56:01.909Z,155049.78
2023-03-26T12:58:51.618Z,155039.31
2023-03-26T13:01:33.437Z,155025.03
2023-03-26T13:04:27.661Z,154903.97
2023-03-26T13:07:04.698Z,155025.03
2023-03-26T13:10:13.889Z,155064.06
2023-03-26T13:12:57.190Z,155092.69
2023-03-26T13:15:34.516Z,155095.38
2023-03-26T13:18:18.397Z,155025.03
2023-03-26T13:20:54.858Z,154887.06
2023-03-26T13:23:34.466Z,154775.13
2023-03-26T13:26:12.646Z,154689.28
2023-03-26T13:28:53.056Z,154751.75
2023-03-26T13:31:30.946Z,154803.75
2023-03-26T13:34:07.205Z,154795.97
2023-03-26T13:36:48.552Z,154699.69
2023-03-26T13:39:30.866Z,154650.28
2023-03-26T13:42:41.967Z,154654.19
2023-03-26T13:45:30.225Z,154652.91
2023-03-26T13:48:04.077Z,154676.25
2023-03-26T13:50:40.537Z,154690.56
2023-03-26T13:53:21.451Z,154756.94
2023-03-26T13:56:02.164Z,154808.94
2023-03-26T13:58:40.878Z,154802.47
2023-03-26T14:01:20.332Z,154829.75
2023-03-26T14:03:57.226Z,154810.25
2023-03-26T14:06:42.523Z,154764.72
2023-03-26T14:09:18.704Z,154717.91
2023-03-26T14:12:21.455Z,154710.09
2023-03-26T14:14:58.396Z,154697.13
2023-03-26T14:17:38.702Z,154602.19
2023-03-26T14:20:47.865Z,154593.09
2023-03-26T14:23:42.988Z,154556.59
2023-03-26T14:26:27.240Z,154550.09
2023-03-26T14:29:38.170Z,154528.03
2023-03-26T14:32:35.347Z,154548.81
2023-03-26T14:35:38.057Z,154535.81
2023-03-26T14:38:46.711Z,154567.00
2023-03-26T14:41:26.206Z,154524.13
2023-03-26T14:44:19.770Z,154535.81
2023-03-26T14:47:16.878Z,154551.41
2023-03-26T14:50:20.539Z,154535.81
2023-03-26T14:53:01.191Z,154554.03
2023-03-26T14:56:15.448Z,154529.31
2023-03-26T14:59:15.023Z,154508.53
2023-03-26T15:02:23.327Z,154492.94
2023-03-26T15:05:20.660Z,154494.22
2023-03-26T15:08:37.237Z,154456.50
2023-03-26T15:11:27.848Z,154444.81
2023-03-26T15:14:20.725Z,154404.53
2023-03-26T15:17:29.581Z,154377.22
2023-03-26T15:20:33.150Z,154361.66
2023-03-26T15:23:33.803Z,154360.34
2023-03-26T15:26:38.550Z,154425.31
2023-03-26T15:29:50.858Z,154355.16
2023-03-26T15:32:53.071Z,154292.72
2023-03-26T15:35:57.031Z,154312.22
2023-03-26T15:38:54.240Z,154286.25
2023-03-26T15:41:34.611Z,154232.97
2023-03-26T15:44:25.510Z,154265.47
2023-03-26T15:47:19.797Z,154253.75
2023-03-26T15:49:54.235Z,154245.97
2023-03-26T15:52:31.575Z,154217.38
2023-03-26T15:55:08.729Z,154187.50
2023-03-26T15:57:48.040Z,154161.53
2023-03-26T16:00:29.459Z,154118.66
2023-03-26T16:03:23.879Z,154096.63
2023-03-26T16:06:14.343Z,154073.22
2023-03-26T16:08:53.330Z,154044.66
2023-03-26T16:11:48.752Z,154033.00
2023-03-26T16:14:25.970Z,154004.38
2023-03-26T16:16:59.446Z,153957.66
2023-03-26T16:19:49.693Z,153960.22
2023-03-26T16:22:42.411Z,153942.09
2023-03-26T16:25:29.372Z,153908.31
2023-03-26T16:28:22.670Z,153860.28
2023-03-26T16:31:37.321Z,153846.00
2023-03-26T16:34:42.290Z,153840.81
2023-03-26T16:37:39.851Z,153801.88
2023-03-26T16:40:35.276Z,153782.41
2023-03-26T16:43:30.002Z,153799.31
2023-03-26T16:46:09.587Z,153764.28
2023-03-26T16:48:49.187Z,153757.78
2023-03-26T16:51:30.841Z,153774.66
2023-03-26T16:54:09.772Z,153720.19
2023-03-26T16:56:51.843Z,153708.47
2023-03-26T17:00:05.833Z,153681.22
2023-03-26T17:02:48.309Z,153673.41
2023-03-26T17:05:24.380Z,153657.84
2023-03-26T17:08:05.592Z,153637.09
2023-03-26T17:10:44.616Z,153621.53
2023-03-26T17:13:23.923Z,153631.91
2023-03-26T17:16:06.911Z,153613.75
2023-03-26T17:18:46.443Z,153616.34
2023-03-26T17:21:21.372Z,153629.28
2023-03-26T17:24:15.300Z,153603.38
2023-03-26T17:27:02.166Z,153580.06
2023-03-26T17:29:53.337Z,153572.25
2023-03-26T17:32:24.563Z,153565.78
2023-03-26T17:35:03.893Z,153580.06
2023-03-26T17:37:48.287Z,153567.06
2023-03-26T17:40:47.832Z,153580.06
2023-03-26T17:43:37.327Z,153587.81
2023-03-26T17:46:16.301Z,153585.25
2023-03-26T17:48:49.666Z,153573.53
2023-03-26T17:51:35.099Z,153595.63
2023-03-26T17:54:06.579Z,153577.44
2023-03-26T17:56:40.823Z,153565.78
2023-03-26T17:59:19.096Z,153590.44
2023-03-26T18:01:50.754Z,153565.78
2023-03-26T18:04:24.892Z,153526.88
2023-03-26T18:07:18.629Z,153537.25
2023-03-26T18:10:02.531Z,153525.59
2023-03-26T18:13:02.765Z,153519.09
2023-03-26T18:15:48.302Z,153506.16
2023-03-26T18:18:22.772Z,153493.16
2023-03-26T18:20:55.521Z,153490.56
2023-03-26T18:23:34.017Z,153478.91
2023-03-26T18:26:15.224Z,153484.09
2023-03-26T18:28:53.353Z,153485.38
2023-03-26T18:31:28.856Z,153469.81
2023-03-26T18:34:18.773Z,153476.34
2023-03-26T18:36:50.735Z,153473.72
2023-03-26T18:39:22.073Z,153499.63
2023-03-26T18:41:52.608Z,153478.91
2023-03-26T18:44:28.949Z,153458.16
2023-03-26T18:47:00.177Z,153434.81
2023-03-26T18:49:31.917Z,153427.06
2023-03-26T18:52:02.173Z,153414.09
2023-03-26T18:54:38.745Z,153425.75
2023-03-26T18:57:14.986Z,153398.53
2023-03-26T18:59:53.160Z,153412.81
2023-03-26T19:02:25.273Z,153408.91
2023-03-26T19:04:56.992Z,153393.38
2023-03-26T19:07:31.226Z,153401.13
2023-03-26T19:10:04.116Z,153401.13
2023-03-26T19:12:37.554Z,153403.72
2023-03-26T19:15:15.146Z,153401.13
2023-03-26T19:17:53.524Z,153405.00
2023-03-26T19:20:27.665Z,153385.56
2023-03-26T19:22:59.373Z,153384.28
2023-03-26T19:25:34.300Z,153392.09
2023-03-26T19:28:04.566Z,153380.38
2023-03-26T19:30:44.261Z,153351.84
2023-03-26T19:33:19.596Z,153342.78
2023-03-26T19:35:55.041Z,153351.84
2023-03-26T19:38:28.103Z,153338.88
2023-03-26T19:41:00.070Z,153314.25
2023-03-26T19:43:30.708Z,153329.81
2023-03-26T19:46:04.060Z,153335.00
2023-03-26T19:48:46.538Z,153324.63
2023-03-26T19:51:22.925Z,153324.63
2023-03-26T19:53:58.455Z,153327.25
2023-03-26T19:56:29.069Z,153342.78
2023-03-26T19:59:00.020Z,153323.34
2023-03-26T20:01:34.079Z,153329.81
2023-03-26T20:04:07.634Z,153320.72
2023-03-26T20:06:43.926Z,153325.91
2023-03-26T20:09:16.591Z,153340.16
2023-03-26T20:11:47.518Z,153316.81
2023-03-26T20:14:24.980Z,153267.59
2023-03-26T20:16:58.424Z,153240.41
2023-03-26T20:19:29.845Z,153228.75
2023-03-26T20:22:00.781Z,153209.31
2023-03-26T20:24:33.851Z,153206.72
2023-03-26T20:27:04.214Z,153208.00
2023-03-26T20:29:34.648Z,153196.34
2023-03-26T20:32:09.773Z,153184.72
2023-03-26T20:34:40.308Z,153138.06
2023-03-26T20:37:10.839Z,153152.31
2023-03-26T20:39:41.863Z,153127.69
2023-03-26T20:42:16.177Z,153104.38
2023-03-26T20:44:47.605Z,153086.28
2023-03-26T20:47:20.578Z,153055.22
2023-03-26T20:49:52.883Z,152995.66
2023-03-26T20:52:25.859Z,152990.44
2023-03-26T20:54:56.292Z,152986.59
2023-03-26T20:57:26.959Z,152978.78
2023-03-26T20:59:57.609Z,152946.47
2023-03-26T21:02:30.987Z,152937.34
2023-03-26T21:05:01.905Z,152904.97
2023-03-26T21:07:32.527Z,152903.69
2023-03-26T21:10:03.769Z,152894.59
2023-03-26T21:12:38.448Z,152907.56
2023-03-26T21:15:22.380Z,152906.25
2023-03-26T21:17:58.344Z,152906.25
2023-03-26T21:20:32.965Z,152888.16
2023-03-26T21:23:13.455Z,152871.28
2023-03-26T21:25:53.284Z,152859.66
2023-03-26T21:28:42.017Z,152836.34
2023-03-26T21:31:18.757Z,152832.50
2023-03-26T21:33:55.425Z,152840.25
2023-03-26T21:36:27.401Z,152836.34
2023-03-26T21:38:58.899Z,152823.44
2023-03-26T21:41:41.456Z,152813.09
2023-03-26T21:44:12.117Z,152820.84
2023-03-26T21:46:45.725Z,152763.94
2023-03-26T21:49:21.104Z,152756.16
2023-03-26T21:51:52.347Z,152758.75
2023-03-26T21:54:28.203Z,152752.25
2023-03-26T21:57:13.730Z,152747.09
2023-03-26T21:59:53.060Z,152735.47
2023-03-26T22:02:29.356Z,152748.41
2023-03-26T22:05:11.583Z,152726.38
2023-03-26T22:07:56.781Z,152725.09
2023-03-26T22:10:27.834Z,152712.16
2023-03-26T22:12:58.524Z,152700.53
2023-03-26T22:15:31.081Z,152706.97
2023-03-26T22:18:04.052Z,152688.84
2023-03-26T22:20:38.146Z,152694.06
2023-03-26T22:23:09.470Z,152691.47
2023-03-26T22:25:40.240Z,152699.25
2023-03-26T22:28:10.745Z,152688.84
2023-03-26T22:30:42.407Z,152674.66
2023-03-26T22:33:13.603Z,152670.78
2023-03-26T22:35:47.739Z,152652.66
2023-03-26T22:38:18.429Z,152638.41
2023-03-26T22:40:48.819Z,152648.75
2023-03-26T22:43:19.070Z,152661.72
2023-03-26T22:45:53.861Z,152651.38
2023-03-26T22:48:24.540Z,152633.25
2023-03-26T22:51:05.796Z,152624.19
2023-03-26T22:53:36.348Z,152624.19
2023-03-26T22:56:07.464Z,152611.28
2023-03-26T22:58:38.215Z,152620.34
2023-03-26T23:01:12.194Z,152621.63
2023-03-26T23:03:43.256Z,152620.34
2023-03-26T23:06:16.628Z,152578.94
2023-03-26T23:08:47.383Z,152558.25
2023-03-26T23:11:19.438Z,152551.81
2023-03-26T23:13:50.421Z,152551.81
2023-03-26T23:16:21.787Z,152545.31
2023-03-26T23:18:51.996Z,152529.78
2023-03-26T23:21:25.811Z,152510.41
2023-03-26T23:24:02.134Z,152493.63
2023-03-26T23:26:43.930Z,152476.81
2023-03-26T23:29:20.230Z,152456.06
2023-03-26T23:31:53.101Z,152435.38
2023-03-26T23:34:23.636Z,152458.66
2023-03-26T23:36:58.273Z,152430.22
2023-03-26T23:39:28.860Z,152413.44
2023-03-26T23:41:59.071Z,152434.09
2023-03-26T23:44:29.808Z,152452.22
2023-03-26T23:47:00.844Z,152438.00
2023-03-26T23:49:32.107Z,152445.72
2023-03-26T23:52:05.552Z,152450.88
2023-03-26T23:54:37.135Z,152474.22
2023-03-26T23:57:11.529Z,152461.22
2023-03-26T23:59:42.120Z,152449.59
